EGXWLSZC

Guest
Details From EGXW - Waddington
To LSZC - Buochs
Flight Number -
Tags Generated
Created
Modified
Stats Distance 505 nm / 936 km
Max Altitude 0 ft / 0 m
Waypoints 4
Social Downloads 1
Likes 0
Share VATSIM

Download

Looking for another format? Having issues loading an existing format? Contact us
Advertisement - Login to hide

Notes

Generated

Route

EGXW BFS25 VEBIT LSZC

ID Type Via Altitude Latitude Longitude Leg Dist Tot Dist Heading (true) Name
O EGXW APT - 0 ft / 0 m 53.15466˚ -0.53148˚ - 0 nm - -
BFS25 FIX - 0 ft / 0 m 50.13799˚ 4.21458˚ 253 nm 253 nm 134° / 138° -
VEBIT FIX - 0 ft / 0 m 47.26861˚ 8.00583˚ 228 nm 481 nm 137° / 140° -
O LSZC APT - 0 ft / 0 m 46.97088˚ 8.39004˚ 23 nm 505 nm 139° / 139° -

Altitude Profile

Advertisement - Login to hide

Weather


0- 5 10 15 20 25 30 35+ Temperature / ° C

Clouds and Precipitation
Forecast for 2017-12-16 18:00 UTC. Updated 3 minutes ago

Ground ~20,000 ft ~40,000 ft Winds

EGXW

Details ICAO EGXW (WTN)
Name RAF Waddington
Region United Kingdom
Timezone Europe/London (UTC+0.0)
Stats Elevation 231 ft / 70 m (AMSL)
Location 53.166112° -0.523906°
Runways 1
Magnetic Variation 0.780° W

METAR

EGXW 161250Z 27007KT CAVOK 04/M01 Q1016 BLU

Decode

TAF

TAF EGXW 160719Z 1609/1703 30008KT 9999 FEW030 PROB30 1700/1703 3000 BR

Decode

Departure Runways

ID Width Length Bearing (true) Bearing (mag) Surface Threshold Offset Overrun Length
02 200 ft / 61 m 8,988 ft / 2,740 m 21.63° 22.41° Asphalt 0 ft / 0 m 600 ft / 183 m
20 200 ft / 61 m 8,988 ft / 2,740 m 201.64° 202.42° Asphalt 0 ft / 0 m 0 ft / 0 m

LSZC

Details ICAO LSZC (BXO)
Name Buochs
Region Switzerland
Timezone Europe/Zurich (UTC+1.0)
Stats Elevation 1,475 ft / 450 m (AMSL)
Location 46.973188° 8.397360°
Runways 2
Magnetic Variation 2.307° E

METAR

LSZC 161320Z AUTO 24003KT 7000 -SN BKN/// 01/00 Q1013

Decode

TAF

Not found

Destination Runways

ID Width Length Bearing (true) Bearing (mag) Surface Threshold Offset Overrun Length
07L 131 ft / 40 m 6,570 ft / 2,002 m 64.09° 61.78° Asphalt 0 ft / 0 m 650 ft / 198 m
07R 131 ft / 40 m 4,827 ft / 1,471 m 64.00° 61.69° Asphalt 0 ft / 0 m 1,161 ft / 354 m
25L 131 ft / 40 m 4,827 ft / 1,471 m 244.02° 241.71° Asphalt 0 ft / 0 m 1,161 ft / 354 m
25R 131 ft / 40 m 6,570 ft / 2,002 m 244.11° 241.80° Asphalt 0 ft / 0 m 650 ft / 198 m

Popular Alternatives